sensor_id;sensor_type;location;lat;lon;timestamp;P1;durP1;ratioP1;P2;durP2;ratioP2
20140;SDS011;10231;47.702;9.826;2023-11-22T00:01:16;7.00;;;6.33;;
20140;SDS011;10231;47.702;9.826;2023-11-22T00:03:42;9.17;;;7.33;;
20140;SDS011;10231;47.702;9.826;2023-11-22T00:06:07;7.13;;;6.43;;
20140;SDS011;10231;47.702;9.826;2023-11-22T00:08:33;7.00;;;6.37;;
20140;SDS011;10231;47.702;9.826;2023-11-22T00:10:59;6.80;;;5.60;;
20140;SDS011;10231;47.702;9.826;2023-11-22T00:13:25;6.17;;;5.63;;
20140;SDS011;10231;47.702;9.826;2023-11-22T00:15:50;8.13;;;7.07;;
20140;SDS011;10231;47.702;9.826;2023-11-22T00:18:16;7.07;;;5.17;;
20140;SDS011;10231;47.702;9.826;2023-11-22T00:20:41;6.73;;;5.70;;
20140;SDS011;10231;47.702;9.826;2023-11-22T00:23:07;7.20;;;6.50;;
20140;SDS011;10231;47.702;9.826;2023-11-22T00:25:33;6.43;;;5.83;;
20140;SDS011;10231;47.702;9.826;2023-11-22T00:27:58;8.10;;;6.47;;
20140;SDS011;10231;47.702;9.826;2023-11-22T00:30:24;6.70;;;6.10;;
20140;SDS011;10231;47.702;9.826;2023-11-22T00:32:50;6.60;;;6.00;;
20140;SDS011;10231;47.702;9.826;2023-11-22T00:35:16;6.87;;;6.17;;
20140;SDS011;10231;47.702;9.826;2023-11-22T00:37:41;7.83;;;7.03;;
20140;SDS011;10231;47.702;9.826;2023-11-22T00:40:07;7.27;;;6.57;;
20140;SDS011;10231;47.702;9.826;2023-11-22T00:42:36;7.17;;;6.57;;
20140;SDS011;10231;47.702;9.826;2023-11-22T00:45:04;6.67;;;6.00;;
20140;SDS011;10231;47.702;9.826;2023-11-22T00:47:31;8.13;;;7.37;;
20140;SDS011;10231;47.702;9.826;2023-11-22T00:49:57;7.57;;;6.73;;
20140;SDS011;10231;47.702;9.826;2023-11-22T00:52:23;6.90;;;6.20;;
20140;SDS011;10231;47.702;9.826;2023-11-22T00:54:49;7.70;;;7.00;;
20140;SDS011;10231;47.702;9.826;2023-11-22T00:57:15;7.93;;;7.13;;
20140;SDS011;10231;47.702;9.826;2023-11-22T00:59:40;8.07;;;7.23;;
20140;SDS011;10231;47.702;9.826;2023-11-22T01:02:06;8.50;;;7.70;;
20140;SDS011;10231;47.702;9.826;2023-11-22T01:04:33;8.97;;;7.27;;
20140;SDS011;10231;47.702;9.826;2023-11-22T01:07:00;8.07;;;7.37;;
20140;SDS011;10231;47.702;9.826;2023-11-22T01:09:26;8.47;;;7.67;;
20140;SDS011;10231;47.702;9.826;2023-11-22T01:11:53;8.60;;;7.43;;
20140;SDS011;10231;47.702;9.826;2023-11-22T01:14:19;8.70;;;7.87;;
20140;SDS011;10231;47.702;9.826;2023-11-22T01:16:45;9.80;;;8.20;;
20140;SDS011;10231;47.702;9.826;2023-11-22T01:19:10;9.47;;;7.73;;
20140;SDS011;10231;47.702;9.826;2023-11-22T01:21:36;9.40;;;8.47;;
20140;SDS011;10231;47.702;9.826;2023-11-22T01:24:02;8.80;;;7.70;;
20140;SDS011;10231;47.702;9.826;2023-11-22T01:26:27;8.30;;;7.50;;
20140;SDS011;10231;47.702;9.826;2023-11-22T01:28:53;10.03;;;8.33;;
20140;SDS011;10231;47.702;9.826;2023-11-22T01:31:18;9.30;;;8.30;;
20140;SDS011;10231;47.702;9.826;2023-11-22T01:33:47;9.80;;;7.70;;
20140;SDS011;10231;47.702;9.826;2023-11-22T01:36:13;8.67;;;7.87;;
20140;SDS011;10231;47.702;9.826;2023-11-22T01:38:40;9.87;;;8.37;;
20140;SDS011;10231;47.702;9.826;2023-11-22T01:41:06;11.73;;;9.00;;
20140;SDS011;10231;47.702;9.826;2023-11-22T01:43:32;9.23;;;8.27;;
20140;SDS011;10231;47.702;9.826;2023-11-22T01:45:57;11.40;;;8.63;;
20140;SDS011;10231;47.702;9.826;2023-11-22T01:48:23;8.43;;;7.63;;
20140;SDS011;10231;47.702;9.826;2023-11-22T01:50:49;8.47;;;7.57;;
20140;SDS011;10231;47.702;9.826;2023-11-22T01:53:15;9.33;;;8.03;;
20140;SDS011;10231;47.702;9.826;2023-11-22T01:55:41;9.20;;;8.13;;
20140;SDS011;10231;47.702;9.826;2023-11-22T01:58:08;11.37;;;9.00;;
20140;SDS011;10231;47.702;9.826;2023-11-22T02:00:55;10.30;;;8.83;;
20140;SDS011;10231;47.702;9.826;2023-11-22T02:03:20;9.87;;;8.87;;
20140;SDS011;10231;47.702;9.826;2023-11-22T02:05:46;10.77;;;8.80;;
20140;SDS011;10231;47.702;9.826;2023-11-22T02:08:12;10.73;;;9.53;;
20140;SDS011;10231;47.702;9.826;2023-11-22T02:10:38;10.93;;;9.77;;
20140;SDS011;10231;47.702;9.826;2023-11-22T02:13:05;10.53;;;9.07;;
20140;SDS011;10231;47.702;9.826;2023-11-22T02:15:32;12.97;;;10.20;;
20140;SDS011;10231;47.702;9.826;2023-11-22T02:17:58;12.17;;;9.70;;
20140;SDS011;10231;47.702;9.826;2023-11-22T02:20:24;12.70;;;9.70;;
20140;SDS011;10231;47.702;9.826;2023-11-22T02:22:49;14.87;;;11.00;;
20140;SDS011;10231;47.702;9.826;2023-11-22T02:25:16;15.10;;;10.70;;
20140;SDS011;10231;47.702;9.826;2023-11-22T02:27:41;13.53;;;11.13;;
20140;SDS011;10231;47.702;9.826;2023-11-22T02:30:07;13.23;;;10.60;;
20140;SDS011;10231;47.702;9.826;2023-11-22T02:32:33;14.07;;;9.93;;
20140;SDS011;10231;47.702;9.826;2023-11-22T02:34:59;12.83;;;10.13;;
20140;SDS011;10231;47.702;9.826;2023-11-22T02:37:25;15.73;;;11.03;;
20140;SDS011;10231;47.702;9.826;2023-11-22T02:39:56;14.47;;;11.33;;
20140;SDS011;10231;47.702;9.826;2023-11-22T02:42:33;14.27;;;10.13;;
20140;SDS011;10231;47.702;9.826;2023-11-22T02:44:59;13.40;;;10.30;;
20140;SDS011;10231;47.702;9.826;2023-11-22T02:47:25;13.03;;;10.40;;
20140;SDS011;10231;47.702;9.826;2023-11-22T02:49:51;13.63;;;10.70;;
20140;SDS011;10231;47.702;9.826;2023-11-22T02:52:17;12.53;;;10.33;;
20140;SDS011;10231;47.702;9.826;2023-11-22T02:54:43;12.73;;;9.70;;
20140;SDS011;10231;47.702;9.826;2023-11-22T02:57:10;13.23;;;10.43;;
20140;SDS011;10231;47.702;9.826;2023-11-22T02:59:36;14.10;;;9.97;;
20140;SDS011;10231;47.702;9.826;2023-11-22T03:02:02;15.33;;;10.83;;
20140;SDS011;10231;47.702;9.826;2023-11-22T03:04:27;14.67;;;10.57;;
20140;SDS011;10231;47.702;9.826;2023-11-22T03:06:53;11.63;;;9.87;;
20140;SDS011;10231;47.702;9.826;2023-11-22T03:09:20;13.73;;;10.03;;
20140;SDS011;10231;47.702;9.826;2023-11-22T03:11:47;13.57;;;10.77;;
20140;SDS011;10231;47.702;9.826;2023-11-22T03:14:13;12.13;;;10.23;;
20140;SDS011;10231;47.702;9.826;2023-11-22T03:16:39;13.40;;;11.10;;
20140;SDS011;10231;47.702;9.826;2023-11-22T03:19:05;17.90;;;11.13;;
20140;SDS011;10231;47.702;9.826;2023-11-22T03:21:31;14.57;;;10.23;;
20140;SDS011;10231;47.702;9.826;2023-11-22T03:23:57;13.80;;;11.07;;
20140;SDS011;10231;47.702;9.826;2023-11-22T03:26:25;14.80;;;10.13;;
20140;SDS011;10231;47.702;9.826;2023-11-22T03:28:50;13.37;;;10.60;;
20140;SDS011;10231;47.702;9.826;2023-11-22T03:31:16;15.07;;;10.40;;
20140;SDS011;10231;47.702;9.826;2023-11-22T03:33:42;12.93;;;10.30;;
20140;SDS011;10231;47.702;9.826;2023-11-22T03:36:07;17.80;;;10.93;;
20140;SDS011;10231;47.702;9.826;2023-11-22T03:38:36;13.30;;;10.10;;
20140;SDS011;10231;47.702;9.826;2023-11-22T03:41:01;13.30;;;10.13;;
20140;SDS011;10231;47.702;9.826;2023-11-22T03:43:27;14.13;;;10.60;;
20140;SDS011;10231;47.702;9.826;2023-11-22T03:45:52;13.07;;;9.40;;
20140;SDS011;10231;47.702;9.826;2023-11-22T03:48:18;10.90;;;8.87;;
20140;SDS011;10231;47.702;9.826;2023-11-22T03:50:43;12.90;;;9.37;;
20140;SDS011;10231;47.702;9.826;2023-11-22T03:53:09;10.40;;;8.43;;
20140;SDS011;10231;47.702;9.826;2023-11-22T03:55:34;11.90;;;8.00;;
20140;SDS011;10231;47.702;9.826;2023-11-22T03:58:00;7.90;;;6.20;;
20140;SDS011;10231;47.702;9.826;2023-11-22T04:00:26;8.77;;;6.60;;
20140;SDS011;10231;47.702;9.826;2023-11-22T04:02:52;8.60;;;6.50;;
20140;SDS011;10231;47.702;9.826;2023-11-22T04:05:18;8.43;;;6.47;;
20140;SDS011;10231;47.702;9.826;2023-11-22T04:07:45;11.40;;;7.33;;
20140;SDS011;10231;47.702;9.826;2023-11-22T04:10:12;10.27;;;8.07;;
20140;SDS011;10231;47.702;9.826;2023-11-22T04:12:37;14.87;;;9.13;;
20140;SDS011;10231;47.702;9.826;2023-11-22T04:15:03;10.13;;;7.70;;
20140;SDS011;10231;47.702;9.826;2023-11-22T04:17:33;9.03;;;6.90;;
20140;SDS011;10231;47.702;9.826;2023-11-22T04:20:02;9.03;;;6.77;;
20140;SDS011;10231;47.702;9.826;2023-11-22T04:22:34;10.80;;;6.57;;
20140;SDS011;10231;47.702;9.826;2023-11-22T04:25:00;7.80;;;6.50;;
20140;SDS011;10231;47.702;9.826;2023-11-22T04:27:27;8.67;;;7.20;;
20140;SDS011;10231;47.702;9.826;2023-11-22T04:29:52;7.13;;;6.43;;
20140;SDS011;10231;47.702;9.826;2023-11-22T04:32:18;8.93;;;6.70;;
20140;SDS011;10231;47.702;9.826;2023-11-22T04:34:44;9.07;;;6.73;;
20140;SDS011;10231;47.702;9.826;2023-11-22T04:37:09;10.30;;;7.80;;
20140;SDS011;10231;47.702;9.826;2023-11-22T04:39:35;11.93;;;8.73;;
20140;SDS011;10231;47.702;9.826;2023-11-22T04:42:00;10.57;;;7.70;;
20140;SDS011;10231;47.702;9.826;2023-11-22T04:44:26;12.13;;;8.57;;
20140;SDS011;10231;47.702;9.826;2023-11-22T04:46:51;12.93;;;8.53;;
20140;SDS011;10231;47.702;9.826;2023-11-22T04:49:17;10.47;;;8.17;;
20140;SDS011;10231;47.702;9.826;2023-11-22T04:51:43;10.67;;;8.40;;
20140;SDS011;10231;47.702;9.826;2023-11-22T04:54:10;9.93;;;8.77;;
20140;SDS011;10231;47.702;9.826;2023-11-22T04:56:36;9.30;;;6.80;;
20140;SDS011;10231;47.702;9.826;2023-11-22T04:59:01;8.90;;;6.50;;
20140;SDS011;10231;47.702;9.826;2023-11-22T05:01:32;6.33;;;5.63;;
20140;SDS011;10231;47.702;9.826;2023-11-22T05:03:58;5.93;;;4.40;;
20140;SDS011;10231;47.702;9.826;2023-11-22T05:06:24;4.47;;;4.07;;
20140;SDS011;10231;47.702;9.826;2023-11-22T05:08:51;3.80;;;3.50;;
20140;SDS011;10231;47.702;9.826;2023-11-22T05:11:17;3.30;;;3.00;;
20140;SDS011;10231;47.702;9.826;2023-11-22T05:13:42;2.40;;;2.20;;
20140;SDS011;10231;47.702;9.826;2023-11-22T05:16:08;2.73;;;2.53;;
20140;SDS011;10231;47.702;9.826;2023-11-22T05:18:34;1.63;;;1.57;;
20140;SDS011;10231;47.702;9.826;2023-11-22T05:21:00;1.40;;;1.40;;
20140;SDS011;10231;47.702;9.826;2023-11-22T05:23:29;2.00;;;1.90;;
20140;SDS011;10231;47.702;9.826;2023-11-22T05:25:54;1.80;;;1.70;;
20140;SDS011;10231;47.702;9.826;2023-11-22T05:28:21;2.07;;;1.97;;
20140;SDS011;10231;47.702;9.826;2023-11-22T05:30:47;1.70;;;1.60;;
20140;SDS011;10231;47.702;9.826;2023-11-22T05:33:13;1.53;;;1.53;;
20140;SDS011;10231;47.702;9.826;2023-11-22T05:35:38;2.33;;;2.13;;
20140;SDS011;10231;47.702;9.826;2023-11-22T05:38:05;2.40;;;2.30;;
20140;SDS011;10231;47.702;9.826;2023-11-22T05:40:31;2.40;;;2.30;;
20140;SDS011;10231;47.702;9.826;2023-11-22T05:42:58;2.07;;;1.97;;
20140;SDS011;10231;47.702;9.826;2023-11-22T05:45:23;2.60;;;2.40;;
20140;SDS011;10231;47.702;9.826;2023-11-22T05:47:50;2.20;;;2.00;;
20140;SDS011;10231;47.702;9.826;2023-11-22T05:50:16;2.20;;;2.10;;
20140;SDS011;10231;47.702;9.826;2023-11-22T05:52:41;2.53;;;2.33;;
20140;SDS011;10231;47.702;9.826;2023-11-22T05:55:07;2.33;;;2.23;;
20140;SDS011;10231;47.702;9.826;2023-11-22T05:57:33;2.00;;;1.90;;
20140;SDS011;10231;47.702;9.826;2023-11-22T05:59:59;1.90;;;1.80;;
20140;SDS011;10231;47.702;9.826;2023-11-22T06:02:24;0.90;;;0.90;;
20140;SDS011;10231;47.702;9.826;2023-11-22T06:04:50;0.80;;;0.80;;
20140;SDS011;10231;47.702;9.826;2023-11-22T06:07:16;0.90;;;0.90;;
20140;SDS011;10231;47.702;9.826;2023-11-22T06:09:41;0.70;;;0.70;;
20140;SDS011;10231;47.702;9.826;2023-11-22T06:12:07;1.17;;;1.07;;
20140;SDS011;10231;47.702;9.826;2023-11-22T06:14:32;0.80;;;0.80;;
20140;SDS011;10231;47.702;9.826;2023-11-22T06:16:58;1.00;;;1.00;;
20140;SDS011;10231;47.702;9.826;2023-11-22T06:19:23;1.13;;;1.13;;
20140;SDS011;10231;47.702;9.826;2023-11-22T06:21:49;0.80;;;0.80;;
20140;SDS011;10231;47.702;9.826;2023-11-22T06:24:14;0.73;;;0.73;;
20140;SDS011;10231;47.702;9.826;2023-11-22T06:26:45;1.27;;;1.27;;
20140;SDS011;10231;47.702;9.826;2023-11-22T06:29:14;1.20;;;1.20;;
20140;SDS011;10231;47.702;9.826;2023-11-22T06:31:40;1.83;;;1.20;;
20140;SDS011;10231;47.702;9.826;2023-11-22T06:34:05;1.27;;;1.20;;
20140;SDS011;10231;47.702;9.826;2023-11-22T06:36:31;1.30;;;1.30;;
20140;SDS011;10231;47.702;9.826;2023-11-22T06:38:57;1.60;;;1.50;;
20140;SDS011;10231;47.702;9.826;2023-11-22T06:41:23;1.30;;;1.30;;
20140;SDS011;10231;47.702;9.826;2023-11-22T06:43:48;1.40;;;1.40;;
20140;SDS011;10231;47.702;9.826;2023-11-22T06:46:14;1.53;;;1.43;;
20140;SDS011;10231;47.702;9.826;2023-11-22T06:48:41;1.70;;;1.60;;
20140;SDS011;10231;47.702;9.826;2023-11-22T06:51:09;1.83;;;1.73;;
20140;SDS011;10231;47.702;9.826;2023-11-22T06:53:34;2.17;;;2.07;;
20140;SDS011;10231;47.702;9.826;2023-11-22T06:56:00;2.13;;;2.03;;
20140;SDS011;10231;47.702;9.826;2023-11-22T06:58:26;2.30;;;2.20;;
20140;SDS011;10231;47.702;9.826;2023-11-22T07:00:52;2.10;;;2.00;;
20140;SDS011;10231;47.702;9.826;2023-11-22T07:03:17;2.43;;;2.23;;
20140;SDS011;10231;47.702;9.826;2023-11-22T07:05:43;2.83;;;2.67;;
20140;SDS011;10231;47.702;9.826;2023-11-22T07:08:09;2.33;;;2.23;;
20140;SDS011;10231;47.702;9.826;2023-11-22T07:10:36;3.50;;;2.70;;
20140;SDS011;10231;47.702;9.826;2023-11-22T07:13:01;2.50;;;2.40;;
20140;SDS011;10231;47.702;9.826;2023-11-22T07:15:27;2.60;;;2.40;;
20140;SDS011;10231;47.702;9.826;2023-11-22T07:17:53;3.53;;;2.67;;
20140;SDS011;10231;47.702;9.826;2023-11-22T07:20:19;2.53;;;2.30;;
20140;SDS011;10231;47.702;9.826;2023-11-22T07:22:45;2.87;;;2.67;;
20140;SDS011;10231;47.702;9.826;2023-11-22T07:25:11;2.57;;;2.37;;
20140;SDS011;10231;47.702;9.826;2023-11-22T07:27:46;2.57;;;2.37;;
20140;SDS011;10231;47.702;9.826;2023-11-22T07:30:15;2.70;;;2.50;;
20140;SDS011;10231;47.702;9.826;2023-11-22T07:32:44;2.70;;;2.50;;
20140;SDS011;10231;47.702;9.826;2023-11-22T07:35:09;3.27;;;3.00;;
20140;SDS011;10231;47.702;9.826;2023-11-22T07:37:36;3.03;;;2.83;;
20140;SDS011;10231;47.702;9.826;2023-11-22T07:40:07;3.53;;;3.00;;
20140;SDS011;10231;47.702;9.826;2023-11-22T07:42:34;3.17;;;2.87;;
20140;SDS011;10231;47.702;9.826;2023-11-22T07:45:03;3.73;;;2.83;;
20140;SDS011;10231;47.702;9.826;2023-11-22T07:47:29;3.90;;;3.60;;
20140;SDS011;10231;47.702;9.826;2023-11-22T07:49:54;3.27;;;2.97;;
20140;SDS011;10231;47.702;9.826;2023-11-22T07:52:23;3.43;;;3.13;;
20140;SDS011;10231;47.702;9.826;2023-11-22T07:54:57;3.60;;;3.30;;
20140;SDS011;10231;47.702;9.826;2023-11-22T07:57:24;3.30;;;3.10;;
20140;SDS011;10231;47.702;9.826;2023-11-22T07:59:50;3.80;;;3.47;;
20140;SDS011;10231;47.702;9.826;2023-11-22T08:02:19;3.70;;;3.40;;
20140;SDS011;10231;47.702;9.826;2023-11-22T08:04:45;4.07;;;3.50;;
20140;SDS011;10231;47.702;9.826;2023-11-22T08:07:11;3.20;;;3.00;;
20140;SDS011;10231;47.702;9.826;2023-11-22T08:09:38;3.83;;;3.53;;
20140;SDS011;10231;47.702;9.826;2023-11-22T08:12:03;4.67;;;4.13;;
20140;SDS011;10231;47.702;9.826;2023-11-22T08:14:29;3.70;;;3.40;;
20140;SDS011;10231;47.702;9.826;2023-11-22T08:16:55;4.50;;;3.80;;
20140;SDS011;10231;47.702;9.826;2023-11-22T08:19:21;4.83;;;3.83;;
20140;SDS011;10231;47.702;9.826;2023-11-22T08:21:48;5.47;;;4.97;;
20140;SDS011;10231;47.702;9.826;2023-11-22T08:24:14;5.57;;;4.93;;
20140;SDS011;10231;47.702;9.826;2023-11-22T08:26:40;5.87;;;5.27;;
20140;SDS011;10231;47.702;9.826;2023-11-22T08:29:06;5.93;;;5.37;;
20140;SDS011;10231;47.702;9.826;2023-11-22T08:31:32;5.37;;;4.87;;
20140;SDS011;10231;47.702;9.826;2023-11-22T08:34:01;5.40;;;4.90;;
20140;SDS011;10231;47.702;9.826;2023-11-22T08:36:29;6.37;;;4.87;;
20140;SDS011;10231;47.702;9.826;2023-11-22T08:38:56;5.80;;;5.30;;
20140;SDS011;10231;47.702;9.826;2023-11-22T08:41:24;5.83;;;5.30;;
20140;SDS011;10231;47.702;9.826;2023-11-22T08:43:50;4.97;;;4.50;;
20140;SDS011;10231;47.702;9.826;2023-11-22T08:46:16;4.70;;;4.20;;
20140;SDS011;10231;47.702;9.826;2023-11-22T08:48:41;4.27;;;3.93;;
20140;SDS011;10231;47.702;9.826;2023-11-22T08:51:07;3.37;;;3.10;;
20140;SDS011;10231;47.702;9.826;2023-11-22T08:53:32;3.47;;;3.17;;
20140;SDS011;10231;47.702;9.826;2023-11-22T08:55:58;3.37;;;3.10;;
20140;SDS011;10231;47.702;9.826;2023-11-22T08:58:24;3.60;;;3.30;;
20140;SDS011;10231;47.702;9.826;2023-11-22T09:00:50;4.57;;;3.77;;
20140;SDS011;10231;47.702;9.826;2023-11-22T09:03:16;3.50;;;3.20;;
20140;SDS011;10231;47.702;9.826;2023-11-22T09:05:42;4.20;;;3.80;;
20140;SDS011;10231;47.702;9.826;2023-11-22T09:08:08;3.93;;;3.53;;
20140;SDS011;10231;47.702;9.826;2023-11-22T09:10:43;3.67;;;3.37;;
20140;SDS011;10231;47.702;9.826;2023-11-22T09:13:09;3.80;;;3.50;;
20140;SDS011;10231;47.702;9.826;2023-11-22T09:15:35;4.50;;;3.47;;
20140;SDS011;10231;47.702;9.826;2023-11-22T09:18:03;4.33;;;3.93;;
20140;SDS011;10231;47.702;9.826;2023-11-22T09:20:29;4.60;;;4.20;;
20140;SDS011;10231;47.702;9.826;2023-11-22T09:22:55;4.53;;;4.13;;
20140;SDS011;10231;47.702;9.826;2023-11-22T09:25:21;3.80;;;3.33;;
20140;SDS011;10231;47.702;9.826;2023-11-22T09:27:52;4.13;;;3.77;;
20140;SDS011;10231;47.702;9.826;2023-11-22T09:30:25;4.13;;;3.80;;
20140;SDS011;10231;47.702;9.826;2023-11-22T09:33:04;4.20;;;3.90;;
20140;SDS011;10231;47.702;9.826;2023-11-22T09:35:32;3.70;;;3.40;;
20140;SDS011;10231;47.702;9.826;2023-11-22T09:37:59;3.83;;;3.53;;
20140;SDS011;10231;47.702;9.826;2023-11-22T09:40:26;3.87;;;3.57;;
20140;SDS011;10231;47.702;9.826;2023-11-22T09:42:56;3.77;;;3.47;;
20140;SDS011;10231;47.702;9.826;2023-11-22T09:45:27;3.90;;;3.60;;
20140;SDS011;10231;47.702;9.826;2023-11-22T09:47:54;3.90;;;3.60;;
20140;SDS011;10231;47.702;9.826;2023-11-22T09:50:23;3.87;;;3.57;;
20140;SDS011;10231;47.702;9.826;2023-11-22T09:52:57;6.37;;;3.77;;
20140;SDS011;10231;47.702;9.826;2023-11-22T09:55:28;4.73;;;3.63;;
20140;SDS011;10231;47.702;9.826;2023-11-22T09:57:55;4.30;;;3.90;;
20140;SDS011;10231;47.702;9.826;2023-11-22T10:00:24;3.87;;;3.57;;
20140;SDS011;10231;47.702;9.826;2023-11-22T10:02:53;3.70;;;3.40;;
20140;SDS011;10231;47.702;9.826;2023-11-22T10:05:19;4.13;;;3.80;;
20140;SDS011;10231;47.702;9.826;2023-11-22T10:07:45;3.87;;;3.57;;
20140;SDS011;10231;47.702;9.826;2023-11-22T10:10:13;3.60;;;3.30;;
20140;SDS011;10231;47.702;9.826;2023-11-22T10:12:42;3.80;;;3.50;;
20140;SDS011;10231;47.702;9.826;2023-11-22T10:15:14;3.43;;;3.23;;
20140;SDS011;10231;47.702;9.826;2023-11-22T10:17:47;3.70;;;3.40;;
20140;SDS011;10231;47.702;9.826;2023-11-22T10:20:21;3.90;;;3.60;;
20140;SDS011;10231;47.702;9.826;2023-11-22T10:22:47;3.83;;;3.30;;
20140;SDS011;10231;47.702;9.826;2023-11-22T10:25:14;3.70;;;3.40;;
20140;SDS011;10231;47.702;9.826;2023-11-22T10:27:43;4.00;;;3.67;;
20140;SDS011;10231;47.702;9.826;2023-11-22T10:30:10;3.77;;;3.47;;
20140;SDS011;10231;47.702;9.826;2023-11-22T10:32:37;3.50;;;3.30;;
20140;SDS011;10231;47.702;9.826;2023-11-22T10:35:04;3.90;;;3.50;;
20140;SDS011;10231;47.702;9.826;2023-11-22T10:37:35;3.63;;;3.23;;
20140;SDS011;10231;47.702;9.826;2023-11-22T10:40:01;4.30;;;3.90;;
20140;SDS011;10231;47.702;9.826;2023-11-22T10:42:30;4.90;;;4.40;;
20140;SDS011;10231;47.702;9.826;2023-11-22T10:44:58;4.90;;;4.50;;
20140;SDS011;10231;47.702;9.826;2023-11-22T10:47:28;4.80;;;4.40;;
20140;SDS011;10231;47.702;9.826;2023-11-22T10:49:55;4.43;;;4.03;;
20140;SDS011;10231;47.702;9.826;2023-11-22T10:52:21;4.67;;;4.30;;
20140;SDS011;10231;47.702;9.826;2023-11-22T10:54:51;5.00;;;4.60;;
20140;SDS011;10231;47.702;9.826;2023-11-22T10:57:22;5.00;;;4.60;;
20140;SDS011;10231;47.702;9.826;2023-11-22T10:59:53;5.23;;;4.57;;
20140;SDS011;10231;47.702;9.826;2023-11-22T11:02:21;4.43;;;4.03;;
20140;SDS011;10231;47.702;9.826;2023-11-22T11:04:51;4.50;;;4.10;;
20140;SDS011;10231;47.702;9.826;2023-11-22T11:07:37;4.77;;;4.33;;
20140;SDS011;10231;47.702;9.826;2023-11-22T11:10:06;4.70;;;4.30;;
20140;SDS011;10231;47.702;9.826;2023-11-22T11:12:33;4.83;;;4.40;;
20140;SDS011;10231;47.702;9.826;2023-11-22T11:14:58;4.37;;;4.07;;
20140;SDS011;10231;47.702;9.826;2023-11-22T11:17:24;4.87;;;4.47;;
20140;SDS011;10231;47.702;9.826;2023-11-22T11:19:51;4.20;;;3.90;;
20140;SDS011;10231;47.702;9.826;2023-11-22T11:22:16;4.40;;;4.00;;
20140;SDS011;10231;47.702;9.826;2023-11-22T11:24:46;4.73;;;4.33;;
20140;SDS011;10231;47.702;9.826;2023-11-22T11:27:12;5.00;;;4.60;;
20140;SDS011;10231;47.702;9.826;2023-11-22T11:29:40;4.47;;;4.07;;
20140;SDS011;10231;47.702;9.826;2023-11-22T11:32:11;6.63;;;4.33;;
20140;SDS011;10231;47.702;9.826;2023-11-22T11:34:47;4.30;;;4.00;;
20140;SDS011;10231;47.702;9.826;2023-11-22T11:37:18;5.23;;;4.83;;
20140;SDS011;10231;47.702;9.826;2023-11-22T11:39:44;6.40;;;5.80;;
20140;SDS011;10231;47.702;9.826;2023-11-22T11:42:10;6.20;;;5.60;;
20140;SDS011;10231;47.702;9.826;2023-11-22T11:44:50;7.27;;;6.57;;
20140;SDS011;10231;47.702;9.826;2023-11-22T11:47:27;9.13;;;8.23;;
20140;SDS011;10231;47.702;9.826;2023-11-22T11:49:53;9.07;;;8.00;;
20140;SDS011;10231;47.702;9.826;2023-11-22T11:52:20;9.33;;;8.33;;
20140;SDS011;10231;47.702;9.826;2023-11-22T11:54:45;8.97;;;8.07;;
20140;SDS011;10231;47.702;9.826;2023-11-22T11:57:11;10.33;;;9.13;;
20140;SDS011;10231;47.702;9.826;2023-11-22T11:59:37;10.13;;;9.07;;
20140;SDS011;10231;47.702;9.826;2023-11-22T12:02:03;8.67;;;7.77;;
20140;SDS011;10231;47.702;9.826;2023-11-22T12:04:31;7.20;;;6.60;;
20140;SDS011;10231;47.702;9.826;2023-11-22T12:06:57;7.37;;;6.37;;
20140;SDS011;10231;47.702;9.826;2023-11-22T12:09:23;6.47;;;5.87;;
20140;SDS011;10231;47.702;9.826;2023-11-22T12:11:50;6.13;;;5.53;;
20140;SDS011;10231;47.702;9.826;2023-11-22T12:14:18;5.40;;;4.90;;
20140;SDS011;10231;47.702;9.826;2023-11-22T12:16:50;4.60;;;4.20;;
20140;SDS011;10231;47.702;9.826;2023-11-22T12:19:25;4.40;;;4.00;;
20140;SDS011;10231;47.702;9.826;2023-11-22T12:21:53;6.40;;;3.83;;
20140;SDS011;10231;47.702;9.826;2023-11-22T12:24:19;4.20;;;3.80;;
20140;SDS011;10231;47.702;9.826;2023-11-22T12:26:45;4.20;;;3.87;;
20140;SDS011;10231;47.702;9.826;2023-11-22T12:29:14;4.03;;;3.70;;
20140;SDS011;10231;47.702;9.826;2023-11-22T12:31:46;3.90;;;3.60;;
20140;SDS011;10231;47.702;9.826;2023-11-22T12:34:15;3.80;;;3.50;;
20140;SDS011;10231;47.702;9.826;2023-11-22T12:36:48;4.20;;;3.90;;
20140;SDS011;10231;47.702;9.826;2023-11-22T12:39:13;4.40;;;4.00;;
20140;SDS011;10231;47.702;9.826;2023-11-22T12:41:42;3.90;;;3.63;;
20140;SDS011;10231;47.702;9.826;2023-11-22T12:44:18;4.50;;;4.07;;
20140;SDS011;10231;47.702;9.826;2023-11-22T12:46:53;4.60;;;4.20;;
20140;SDS011;10231;47.702;9.826;2023-11-22T12:49:24;4.67;;;4.27;;
20140;SDS011;10231;47.702;9.826;2023-11-22T12:51:54;5.03;;;4.63;;
20140;SDS011;10231;47.702;9.826;2023-11-22T12:54:21;5.03;;;4.63;;
20140;SDS011;10231;47.702;9.826;2023-11-22T12:56:51;4.53;;;4.13;;
20140;SDS011;10231;47.702;9.826;2023-11-22T12:59:25;4.90;;;4.50;;
20140;SDS011;10231;47.702;9.826;2023-11-22T13:01:55;4.90;;;4.50;;
20140;SDS011;10231;47.702;9.826;2023-11-22T13:04:21;5.00;;;4.50;;
20140;SDS011;10231;47.702;9.826;2023-11-22T13:06:47;4.90;;;4.50;;
20140;SDS011;10231;47.702;9.826;2023-11-22T13:09:12;4.70;;;4.23;;
20140;SDS011;10231;47.702;9.826;2023-11-22T13:11:41;4.40;;;4.10;;
20140;SDS011;10231;47.702;9.826;2023-11-22T13:14:08;6.30;;;5.70;;
20140;SDS011;10231;47.702;9.826;2023-11-22T13:16:34;5.70;;;5.20;;
20140;SDS011;10231;47.702;9.826;2023-11-22T13:19:01;5.07;;;4.67;;
20140;SDS011;10231;47.702;9.826;2023-11-22T13:21:27;4.60;;;4.20;;
20140;SDS011;10231;47.702;9.826;2023-11-22T13:23:52;4.80;;;4.40;;
20140;SDS011;10231;47.702;9.826;2023-11-22T13:26:18;5.50;;;4.33;;
20140;SDS011;10231;47.702;9.826;2023-11-22T13:28:44;4.80;;;4.40;;
20140;SDS011;10231;47.702;9.826;2023-11-22T13:31:10;5.10;;;4.60;;
20140;SDS011;10231;47.702;9.826;2023-11-22T13:33:37;4.73;;;4.33;;
20140;SDS011;10231;47.702;9.826;2023-11-22T13:36:03;4.73;;;4.33;;
20140;SDS011;10231;47.702;9.826;2023-11-22T13:38:30;5.80;;;5.30;;
20140;SDS011;10231;47.702;9.826;2023-11-22T13:40:55;6.17;;;5.43;;
20140;SDS011;10231;47.702;9.826;2023-11-22T13:43:21;6.13;;;5.63;;
20140;SDS011;10231;47.702;9.826;2023-11-22T13:45:46;7.17;;;6.47;;
20140;SDS011;10231;47.702;9.826;2023-11-22T13:48:12;8.13;;;6.90;;
20140;SDS011;10231;47.702;9.826;2023-11-22T13:50:37;8.27;;;7.47;;
20140;SDS011;10231;47.702;9.826;2023-11-22T13:53:03;7.77;;;6.97;;
20140;SDS011;10231;47.702;9.826;2023-11-22T13:55:29;7.97;;;7.03;;
20140;SDS011;10231;47.702;9.826;2023-11-22T13:57:56;8.87;;;7.97;;
20140;SDS011;10231;47.702;9.826;2023-11-22T14:00:27;8.40;;;7.60;;
20140;SDS011;10231;47.702;9.826;2023-11-22T14:02:58;8.60;;;7.80;;
20140;SDS011;10231;47.702;9.826;2023-11-22T14:05:30;7.63;;;6.93;;
20140;SDS011;10231;47.702;9.826;2023-11-22T14:07:56;7.73;;;7.03;;
20140;SDS011;10231;47.702;9.826;2023-11-22T14:10:22;7.97;;;7.20;;
20140;SDS011;10231;47.702;9.826;2023-11-22T14:12:48;7.67;;;6.87;;
20140;SDS011;10231;47.702;9.826;2023-11-22T14:15:14;6.57;;;6.03;;
20140;SDS011;10231;47.702;9.826;2023-11-22T14:17:40;8.20;;;7.40;;
20140;SDS011;10231;47.702;9.826;2023-11-22T14:20:06;7.20;;;6.50;;
20140;SDS011;10231;47.702;9.826;2023-11-22T14:22:34;7.87;;;7.17;;
20140;SDS011;10231;47.702;9.826;2023-11-22T14:25:08;9.37;;;7.67;;
20140;SDS011;10231;47.702;9.826;2023-11-22T14:27:42;7.70;;;6.93;;
20140;SDS011;10231;47.702;9.826;2023-11-22T14:30:09;7.60;;;6.30;;
20140;SDS011;10231;47.702;9.826;2023-11-22T14:32:38;7.27;;;6.57;;
20140;SDS011;10231;47.702;9.826;2023-11-22T14:35:05;8.13;;;6.80;;
20140;SDS011;10231;47.702;9.826;2023-11-22T14:37:34;7.10;;;6.40;;
20140;SDS011;10231;47.702;9.826;2023-11-22T14:40:01;7.50;;;6.80;;
20140;SDS011;10231;47.702;9.826;2023-11-22T14:42:29;7.20;;;6.50;;